sensor_id;sensor_type;location;lat;lon;timestamp;temperature;humidity
20376;DHT22;10347;51.828;6.466;2023-11-21T00:00:15;11.30;99.90
20376;DHT22;10347;51.828;6.466;2023-11-21T00:02:41;11.30;99.90
20376;DHT22;10347;51.828;6.466;2023-11-21T00:05:08;11.30;99.90
20376;DHT22;10347;51.828;6.466;2023-11-21T00:07:35;11.30;99.90
20376;DHT22;10347;51.828;6.466;2023-11-21T00:10:01;11.40;99.90
20376;DHT22;10347;51.828;6.466;2023-11-21T00:12:28;11.30;99.90
20376;DHT22;10347;51.828;6.466;2023-11-21T00:14:54;11.30;99.90
20376;DHT22;10347;51.828;6.466;2023-11-21T00:17:20;11.30;99.90
20376;DHT22;10347;51.828;6.466;2023-11-21T00:19:45;11.40;99.90
20376;DHT22;10347;51.828;6.466;2023-11-21T00:22:11;11.40;99.90
20376;DHT22;10347;51.828;6.466;2023-11-21T00:24:37;11.40;99.90
20376;DHT22;10347;51.828;6.466;2023-11-21T00:27:02;11.40;99.90
20376;DHT22;10347;51.828;6.466;2023-11-21T00:29:28;11.40;99.90
20376;DHT22;10347;51.828;6.466;2023-11-21T00:31:54;11.40;99.90
20376;DHT22;10347;51.828;6.466;2023-11-21T00:34:20;11.40;99.90
20376;DHT22;10347;51.828;6.466;2023-11-21T00:36:45;11.40;99.90
20376;DHT22;10347;51.828;6.466;2023-11-21T00:39:11;11.40;99.90
20376;DHT22;10347;51.828;6.466;2023-11-21T00:41:37;11.40;99.90
20376;DHT22;10347;51.828;6.466;2023-11-21T00:44:03;11.40;99.90
20376;DHT22;10347;51.828;6.466;2023-11-21T00:46:28;11.40;99.90
20376;DHT22;10347;51.828;6.466;2023-11-21T00:48:55;11.40;99.90
20376;DHT22;10347;51.828;6.466;2023-11-21T00:51:21;11.40;99.90
20376;DHT22;10347;51.828;6.466;2023-11-21T00:53:47;11.40;99.90
20376;DHT22;10347;51.828;6.466;2023-11-21T00:56:13;11.40;99.90
20376;DHT22;10347;51.828;6.466;2023-11-21T00:58:40;11.40;99.90
20376;DHT22;10347;51.828;6.466;2023-11-21T01:01:09;11.40;99.90
20376;DHT22;10347;51.828;6.466;2023-11-21T01:03:35;11.40;99.90
20376;DHT22;10347;51.828;6.466;2023-11-21T01:06:00;11.40;99.90
20376;DHT22;10347;51.828;6.466;2023-11-21T01:08:26;11.40;99.90
20376;DHT22;10347;51.828;6.466;2023-11-21T01:10:51;11.40;99.90
20376;DHT22;10347;51.828;6.466;2023-11-21T01:13:17;11.40;99.90
20376;DHT22;10347;51.828;6.466;2023-11-21T01:15:42;11.40;99.90
20376;DHT22;10347;51.828;6.466;2023-11-21T01:18:08;11.40;99.90
20376;DHT22;10347;51.828;6.466;2023-11-21T01:20:36;11.40;99.90
20376;DHT22;10347;51.828;6.466;2023-11-21T01:23:02;11.40;99.90
20376;DHT22;10347;51.828;6.466;2023-11-21T01:25:27;11.40;99.90
20376;DHT22;10347;51.828;6.466;2023-11-21T01:27:53;11.40;99.90
20376;DHT22;10347;51.828;6.466;2023-11-21T01:30:18;11.40;99.90
20376;DHT22;10347;51.828;6.466;2023-11-21T01:32:44;11.40;99.90
20376;DHT22;10347;51.828;6.466;2023-11-21T01:35:10;11.30;99.90
20376;DHT22;10347;51.828;6.466;2023-11-21T01:37:37;11.30;99.90
20376;DHT22;10347;51.828;6.466;2023-11-21T01:40:03;11.30;99.90
20376;DHT22;10347;51.828;6.466;2023-11-21T01:42:33;11.30;99.90
20376;DHT22;10347;51.828;6.466;2023-11-21T01:45:00;11.30;99.90
20376;DHT22;10347;51.828;6.466;2023-11-21T01:47:31;11.30;99.90
20376;DHT22;10347;51.828;6.466;2023-11-21T01:49:57;11.30;99.90
20376;DHT22;10347;51.828;6.466;2023-11-21T01:52:23;11.30;99.90
20376;DHT22;10347;51.828;6.466;2023-11-21T01:54:48;11.30;99.90
20376;DHT22;10347;51.828;6.466;2023-11-21T01:57:14;11.30;99.90
20376;DHT22;10347;51.828;6.466;2023-11-21T01:59:41;11.20;99.90
20376;DHT22;10347;51.828;6.466;2023-11-21T02:02:08;11.20;99.90
20376;DHT22;10347;51.828;6.466;2023-11-21T02:04:35;11.20;99.90
20376;DHT22;10347;51.828;6.466;2023-11-21T02:07:04;11.20;99.90
20376;DHT22;10347;51.828;6.466;2023-11-21T02:09:31;11.20;99.90
20376;DHT22;10347;51.828;6.466;2023-11-21T02:11:58;11.20;99.90
20376;DHT22;10347;51.828;6.466;2023-11-21T02:14:25;11.20;99.90
20376;DHT22;10347;51.828;6.466;2023-11-21T02:16:52;11.20;99.90
20376;DHT22;10347;51.828;6.466;2023-11-21T02:19:20;11.10;99.90
20376;DHT22;10347;51.828;6.466;2023-11-21T02:21:49;11.10;99.90
20376;DHT22;10347;51.828;6.466;2023-11-21T02:24:15;11.20;99.90
20376;DHT22;10347;51.828;6.466;2023-11-21T02:26:43;11.20;99.90
20376;DHT22;10347;51.828;6.466;2023-11-21T02:29:08;11.20;99.90
20376;DHT22;10347;51.828;6.466;2023-11-21T02:31:37;11.20;99.90
20376;DHT22;10347;51.828;6.466;2023-11-21T02:34:11;11.20;99.90
20376;DHT22;10347;51.828;6.466;2023-11-21T02:36:38;11.20;99.90
20376;DHT22;10347;51.828;6.466;2023-11-21T02:39:04;11.20;99.90
20376;DHT22;10347;51.828;6.466;2023-11-21T02:41:30;11.20;99.90
20376;DHT22;10347;51.828;6.466;2023-11-21T02:43:55;11.20;99.90
20376;DHT22;10347;51.828;6.466;2023-11-21T02:46:21;11.10;99.90
20376;DHT22;10347;51.828;6.466;2023-11-21T02:48:47;11.10;99.90
20376;DHT22;10347;51.828;6.466;2023-11-21T02:51:12;11.10;99.90
20376;DHT22;10347;51.828;6.466;2023-11-21T02:53:38;11.10;99.90
20376;DHT22;10347;51.828;6.466;2023-11-21T02:56:04;11.20;99.90
20376;DHT22;10347;51.828;6.466;2023-11-21T02:58:30;11.20;99.90
20376;DHT22;10347;51.828;6.466;2023-11-21T03:00:55;11.20;99.90
20376;DHT22;10347;51.828;6.466;2023-11-21T03:03:21;11.20;99.90
20376;DHT22;10347;51.828;6.466;2023-11-21T03:05:49;11.20;99.90
20376;DHT22;10347;51.828;6.466;2023-11-21T03:08:14;11.20;99.90
20376;DHT22;10347;51.828;6.466;2023-11-21T03:10:40;11.10;99.90
20376;DHT22;10347;51.828;6.466;2023-11-21T03:13:06;11.10;99.90
20376;DHT22;10347;51.828;6.466;2023-11-21T03:15:31;11.10;99.90
20376;DHT22;10347;51.828;6.466;2023-11-21T03:17:58;11.00;99.90
20376;DHT22;10347;51.828;6.466;2023-11-21T03:20:23;11.00;99.90
20376;DHT22;10347;51.828;6.466;2023-11-21T03:22:49;11.00;99.90
20376;DHT22;10347;51.828;6.466;2023-11-21T03:25:15;11.00;99.90
20376;DHT22;10347;51.828;6.466;2023-11-21T03:27:42;11.10;99.90
20376;DHT22;10347;51.828;6.466;2023-11-21T03:30:09;11.10;99.90
20376;DHT22;10347;51.828;6.466;2023-11-21T03:32:34;11.10;99.90
20376;DHT22;10347;51.828;6.466;2023-11-21T03:35:01;11.10;99.90
20376;DHT22;10347;51.828;6.466;2023-11-21T03:37:27;11.00;99.90
20376;DHT22;10347;51.828;6.466;2023-11-21T03:39:53;11.00;99.90
20376;DHT22;10347;51.828;6.466;2023-11-21T03:42:19;11.00;99.90
20376;DHT22;10347;51.828;6.466;2023-11-21T03:44:45;11.00;99.90
20376;DHT22;10347;51.828;6.466;2023-11-21T03:47:10;11.10;99.90
20376;DHT22;10347;51.828;6.466;2023-11-21T03:49:36;11.10;99.90
20376;DHT22;10347;51.828;6.466;2023-11-21T03:52:01;11.10;99.90
20376;DHT22;10347;51.828;6.466;2023-11-21T03:54:27;11.10;99.90
20376;DHT22;10347;51.828;6.466;2023-11-21T03:56:53;11.10;99.90
20376;DHT22;10347;51.828;6.466;2023-11-21T03:59:18;11.10;99.90
20376;DHT22;10347;51.828;6.466;2023-11-21T04:01:44;11.10;99.90
20376;DHT22;10347;51.828;6.466;2023-11-21T04:04:10;11.10;99.90
20376;DHT22;10347;51.828;6.466;2023-11-21T04:06:35;11.10;99.90
20376;DHT22;10347;51.828;6.466;2023-11-21T04:09:02;11.10;99.90
20376;DHT22;10347;51.828;6.466;2023-11-21T04:11:29;11.10;99.90
20376;DHT22;10347;51.828;6.466;2023-11-21T04:13:55;11.10;99.90
20376;DHT22;10347;51.828;6.466;2023-11-21T04:16:21;11.00;99.90
20376;DHT22;10347;51.828;6.466;2023-11-21T04:18:46;11.00;99.90
20376;DHT22;10347;51.828;6.466;2023-11-21T04:21:12;11.00;99.90
20376;DHT22;10347;51.828;6.466;2023-11-21T04:23:37;11.00;99.90
20376;DHT22;10347;51.828;6.466;2023-11-21T04:26:03;11.00;99.90
20376;DHT22;10347;51.828;6.466;2023-11-21T04:28:28;11.00;99.90
20376;DHT22;10347;51.828;6.466;2023-11-21T04:30:54;11.00;99.90
20376;DHT22;10347;51.828;6.466;2023-11-21T04:33:20;11.00;99.90
20376;DHT22;10347;51.828;6.466;2023-11-21T04:35:46;11.00;99.90
20376;DHT22;10347;51.828;6.466;2023-11-21T04:38:12;11.00;99.90
20376;DHT22;10347;51.828;6.466;2023-11-21T04:40:38;11.00;99.90
20376;DHT22;10347;51.828;6.466;2023-11-21T04:43:04;11.00;99.90
20376;DHT22;10347;51.828;6.466;2023-11-21T04:45:29;10.90;99.90
20376;DHT22;10347;51.828;6.466;2023-11-21T04:47:55;11.00;99.90
20376;DHT22;10347;51.828;6.466;2023-11-21T04:50:21;11.00;99.90
20376;DHT22;10347;51.828;6.466;2023-11-21T04:52:47;11.00;99.90
20376;DHT22;10347;51.828;6.466;2023-11-21T04:55:12;11.00;99.90
20376;DHT22;10347;51.828;6.466;2023-11-21T04:57:38;11.00;99.90
20376;DHT22;10347;51.828;6.466;2023-11-21T05:00:08;10.90;99.90
20376;DHT22;10347;51.828;6.466;2023-11-21T05:02:33;11.00;99.90
20376;DHT22;10347;51.828;6.466;2023-11-21T05:05:03;11.00;99.90
20376;DHT22;10347;51.828;6.466;2023-11-21T05:07:31;11.00;99.90
20376;DHT22;10347;51.828;6.466;2023-11-21T05:09:57;11.00;99.90
20376;DHT22;10347;51.828;6.466;2023-11-21T05:12:24;11.00;99.90
20376;DHT22;10347;51.828;6.466;2023-11-21T05:14:50;11.00;99.90
20376;DHT22;10347;51.828;6.466;2023-11-21T05:17:16;11.00;99.90
20376;DHT22;10347;51.828;6.466;2023-11-21T05:19:41;11.00;99.90
20376;DHT22;10347;51.828;6.466;2023-11-21T05:22:08;11.00;99.90
20376;DHT22;10347;51.828;6.466;2023-11-21T05:24:34;11.00;99.90
20376;DHT22;10347;51.828;6.466;2023-11-21T05:27:00;11.00;99.90
20376;DHT22;10347;51.828;6.466;2023-11-21T05:29:25;11.00;99.90
20376;DHT22;10347;51.828;6.466;2023-11-21T05:31:51;11.00;99.90
20376;DHT22;10347;51.828;6.466;2023-11-21T05:34:18;11.00;99.90
20376;DHT22;10347;51.828;6.466;2023-11-21T05:36:43;11.00;99.90
20376;DHT22;10347;51.828;6.466;2023-11-21T05:39:11;11.00;99.90
20376;DHT22;10347;51.828;6.466;2023-11-21T05:41:36;11.10;99.90
20376;DHT22;10347;51.828;6.466;2023-11-21T05:44:02;11.10;99.90
20376;DHT22;10347;51.828;6.466;2023-11-21T05:46:28;11.00;99.90
20376;DHT22;10347;51.828;6.466;2023-11-21T05:48:53;11.00;99.90
20376;DHT22;10347;51.828;6.466;2023-11-21T05:51:19;11.00;99.90
20376;DHT22;10347;51.828;6.466;2023-11-21T05:53:44;11.00;99.90
20376;DHT22;10347;51.828;6.466;2023-11-21T05:56:10;11.00;99.90
20376;DHT22;10347;51.828;6.466;2023-11-21T05:58:35;11.00;99.90
20376;DHT22;10347;51.828;6.466;2023-11-21T06:01:01;11.00;99.90
20376;DHT22;10347;51.828;6.466;2023-11-21T06:03:26;11.00;99.90
20376;DHT22;10347;51.828;6.466;2023-11-21T06:05:52;11.10;99.90
20376;DHT22;10347;51.828;6.466;2023-11-21T06:08:18;11.10;99.90
20376;DHT22;10347;51.828;6.466;2023-11-21T06:10:44;11.00;99.90
20376;DHT22;10347;51.828;6.466;2023-11-21T06:13:09;11.10;99.90
20376;DHT22;10347;51.828;6.466;2023-11-21T06:15:36;11.10;99.90
20376;DHT22;10347;51.828;6.466;2023-11-21T06:18:01;11.00;99.90
20376;DHT22;10347;51.828;6.466;2023-11-21T06:20:27;11.10;99.90
20376;DHT22;10347;51.828;6.466;2023-11-21T06:22:53;11.10;99.90
20376;DHT22;10347;51.828;6.466;2023-11-21T06:25:19;11.00;99.90
20376;DHT22;10347;51.828;6.466;2023-11-21T06:27:46;11.00;99.90
20376;DHT22;10347;51.828;6.466;2023-11-21T06:30:15;11.00;99.90
20376;DHT22;10347;51.828;6.466;2023-11-21T06:32:41;11.00;99.90
20376;DHT22;10347;51.828;6.466;2023-11-21T06:35:08;11.00;99.90
20376;DHT22;10347;51.828;6.466;2023-11-21T06:37:37;11.00;99.90
20376;DHT22;10347;51.828;6.466;2023-11-21T06:40:03;11.00;99.90
20376;DHT22;10347;51.828;6.466;2023-11-21T06:42:32;11.00;99.90
20376;DHT22;10347;51.828;6.466;2023-11-21T06:44:58;11.00;99.90
20376;DHT22;10347;51.828;6.466;2023-11-21T06:47:25;11.00;99.90
20376;DHT22;10347;51.828;6.466;2023-11-21T06:49:51;11.00;99.90
20376;DHT22;10347;51.828;6.466;2023-11-21T06:52:17;11.00;99.90
20376;DHT22;10347;51.828;6.466;2023-11-21T06:54:43;11.00;99.90
20376;DHT22;10347;51.828;6.466;2023-11-21T06:57:09;11.10;99.90
20376;DHT22;10347;51.828;6.466;2023-11-21T06:59:35;11.10;99.90
20376;DHT22;10347;51.828;6.466;2023-11-21T07:02:00;11.10;99.90
20376;DHT22;10347;51.828;6.466;2023-11-21T07:04:26;11.10;99.90
20376;DHT22;10347;51.828;6.466;2023-11-21T07:06:53;11.10;99.90
20376;DHT22;10347;51.828;6.466;2023-11-21T07:09:19;11.10;99.90
20376;DHT22;10347;51.828;6.466;2023-11-21T07:11:50;11.10;99.90
20376;DHT22;10347;51.828;6.466;2023-11-21T07:14:16;11.10;99.90
20376;DHT22;10347;51.828;6.466;2023-11-21T07:16:42;11.10;99.90
20376;DHT22;10347;51.828;6.466;2023-11-21T07:19:08;11.10;99.90
20376;DHT22;10347;51.828;6.466;2023-11-21T07:21:34;11.20;99.90
20376;DHT22;10347;51.828;6.466;2023-11-21T07:24:00;11.20;99.90
20376;DHT22;10347;51.828;6.466;2023-11-21T07:26:29;11.10;99.90
20376;DHT22;10347;51.828;6.466;2023-11-21T07:28:55;11.10;99.90
20376;DHT22;10347;51.828;6.466;2023-11-21T07:31:23;11.10;99.90
20376;DHT22;10347;51.828;6.466;2023-11-21T07:33:50;11.10;99.90
20376;DHT22;10347;51.828;6.466;2023-11-21T07:36:16;11.10;99.90
20376;DHT22;10347;51.828;6.466;2023-11-21T07:38:46;11.10;99.90
20376;DHT22;10347;51.828;6.466;2023-11-21T07:41:12;11.10;99.90
20376;DHT22;10347;51.828;6.466;2023-11-21T07:43:41;11.10;99.90
20376;DHT22;10347;51.828;6.466;2023-11-21T07:46:07;11.10;99.90
20376;DHT22;10347;51.828;6.466;2023-11-21T07:48:34;11.10;99.90
20376;DHT22;10347;51.828;6.466;2023-11-21T07:51:00;11.10;99.90
20376;DHT22;10347;51.828;6.466;2023-11-21T07:53:26;11.10;99.90
20376;DHT22;10347;51.828;6.466;2023-11-21T07:55:54;11.20;99.90
20376;DHT22;10347;51.828;6.466;2023-11-21T07:58:20;11.10;99.90
20376;DHT22;10347;51.828;6.466;2023-11-21T08:00:46;11.20;99.90
20376;DHT22;10347;51.828;6.466;2023-11-21T08:03:13;11.20;99.90
20376;DHT22;10347;51.828;6.466;2023-11-21T08:05:39;11.20;99.90
20376;DHT22;10347;51.828;6.466;2023-11-21T08:08:04;11.20;99.90
20376;DHT22;10347;51.828;6.466;2023-11-21T08:10:30;11.20;99.90
20376;DHT22;10347;51.828;6.466;2023-11-21T08:12:56;11.10;99.90
20376;DHT22;10347;51.828;6.466;2023-11-21T08:15:21;11.20;99.90
20376;DHT22;10347;51.828;6.466;2023-11-21T08:17:47;11.10;99.90
20376;DHT22;10347;51.828;6.466;2023-11-21T08:20:13;11.10;99.90
20376;DHT22;10347;51.828;6.466;2023-11-21T08:22:42;11.10;99.90
20376;DHT22;10347;51.828;6.466;2023-11-21T08:25:08;11.20;99.90
20376;DHT22;10347;51.828;6.466;2023-11-21T08:27:34;11.20;99.90
20376;DHT22;10347;51.828;6.466;2023-11-21T08:30:00;11.20;99.90
20376;DHT22;10347;51.828;6.466;2023-11-21T08:32:26;11.20;99.90
20376;DHT22;10347;51.828;6.466;2023-11-21T08:34:51;11.20;99.90
20376;DHT22;10347;51.828;6.466;2023-11-21T08:37:17;11.20;99.90
20376;DHT22;10347;51.828;6.466;2023-11-21T08:39:46;11.20;99.90
20376;DHT22;10347;51.828;6.466;2023-11-21T08:42:13;11.20;99.90
20376;DHT22;10347;51.828;6.466;2023-11-21T08:44:40;11.30;99.90
20376;DHT22;10347;51.828;6.466;2023-11-21T08:47:05;11.20;99.90
20376;DHT22;10347;51.828;6.466;2023-11-21T08:49:31;11.30;99.90
20376;DHT22;10347;51.828;6.466;2023-11-21T08:51:58;11.30;99.90
20376;DHT22;10347;51.828;6.466;2023-11-21T08:54:25;11.30;99.90
20376;DHT22;10347;51.828;6.466;2023-11-21T08:56:54;11.30;99.90
20376;DHT22;10347;51.828;6.466;2023-11-21T08:59:20;11.30;99.90
20376;DHT22;10347;51.828;6.466;2023-11-21T09:01:46;11.20;99.90
20376;DHT22;10347;51.828;6.466;2023-11-21T09:04:12;11.30;99.90
20376;DHT22;10347;51.828;6.466;2023-11-21T09:06:39;11.30;99.90
20376;DHT22;10347;51.828;6.466;2023-11-21T09:09:05;11.30;99.90
20376;DHT22;10347;51.828;6.466;2023-11-21T09:11:34;11.30;99.90
20376;DHT22;10347;51.828;6.466;2023-11-21T09:14:01;11.30;99.90
20376;DHT22;10347;51.828;6.466;2023-11-21T09:16:26;11.30;99.90
20376;DHT22;10347;51.828;6.466;2023-11-21T09:18:52;11.40;99.90
20376;DHT22;10347;51.828;6.466;2023-11-21T09:21:18;11.40;99.90
20376;DHT22;10347;51.828;6.466;2023-11-21T09:23:48;11.40;99.90
20376;DHT22;10347;51.828;6.466;2023-11-21T09:26:14;11.40;99.90
20376;DHT22;10347;51.828;6.466;2023-11-21T09:28:41;11.40;99.90
20376;DHT22;10347;51.828;6.466;2023-11-21T09:31:11;11.40;99.90
20376;DHT22;10347;51.828;6.466;2023-11-21T09:33:37;11.40;99.90
20376;DHT22;10347;51.828;6.466;2023-11-21T09:36:04;11.40;99.90
20376;DHT22;10347;51.828;6.466;2023-11-21T09:38:30;11.40;99.90
20376;DHT22;10347;51.828;6.466;2023-11-21T09:40:56;11.40;99.90
20376;DHT22;10347;51.828;6.466;2023-11-21T09:43:25;11.40;99.90
20376;DHT22;10347;51.828;6.466;2023-11-21T09:45:59;11.40;99.90
20376;DHT22;10347;51.828;6.466;2023-11-21T09:48:26;11.50;99.90
20376;DHT22;10347;51.828;6.466;2023-11-21T09:50:53;11.50;99.90
20376;DHT22;10347;51.828;6.466;2023-11-21T09:53:20;11.50;99.90
20376;DHT22;10347;51.828;6.466;2023-11-21T09:55:49;11.50;99.90
20376;DHT22;10347;51.828;6.466;2023-11-21T09:58:16;11.50;99.90
20376;DHT22;10347;51.828;6.466;2023-11-21T10:00:44;11.50;99.90
20376;DHT22;10347;51.828;6.466;2023-11-21T10:03:11;11.60;99.90
20376;DHT22;10347;51.828;6.466;2023-11-21T10:05:37;11.60;99.90
20376;DHT22;10347;51.828;6.466;2023-11-21T10:08:10;11.60;99.90
20376;DHT22;10347;51.828;6.466;2023-11-21T10:10:46;11.60;99.90
20376;DHT22;10347;51.828;6.466;2023-11-21T10:13:14;11.60;99.90
20376;DHT22;10347;51.828;6.466;2023-11-21T10:15:43;11.60;99.90
20376;DHT22;10347;51.828;6.466;2023-11-21T10:18:14;11.60;99.90
20376;DHT22;10347;51.828;6.466;2023-11-21T10:20:41;11.60;99.90
20376;DHT22;10347;51.828;6.466;2023-11-21T10:23:08;11.60;99.90
20376;DHT22;10347;51.828;6.466;2023-11-21T10:25:37;11.60;99.90
20376;DHT22;10347;51.828;6.466;2023-11-21T10:28:03;11.70;99.90
20376;DHT22;10347;51.828;6.466;2023-11-21T10:30:37;11.70;99.90
20376;DHT22;10347;51.828;6.466;2023-11-21T10:33:04;11.70;99.90
20376;DHT22;10347;51.828;6.466;2023-11-21T10:38:18;11.70;99.90
20376;DHT22;10347;51.828;6.466;2023-11-21T10:40:46;11.80;99.90
20376;DHT22;10347;51.828;6.466;2023-11-21T10:43:13;11.70;99.90
20376;DHT22;10347;51.828;6.466;2023-11-21T10:45:40;11.70;99.90
20376;DHT22;10347;51.828;6.466;2023-11-21T10:48:07;11.80;99.90
20376;DHT22;10347;51.828;6.466;2023-11-21T10:50:34;11.80;99.90
20376;DHT22;10347;51.828;6.466;2023-11-21T10:53:03;11.80;99.90
20376;DHT22;10347;51.828;6.466;2023-11-21T10:55:30;11.80;99.90
20376;DHT22;10347;51.828;6.466;2023-11-21T10:57:58;11.80;99.90
20376;DHT22;10347;51.828;6.466;2023-11-21T11:00:26;11.80;99.90
20376;DHT22;10347;51.828;6.466;2023-11-21T11:02:52;11.80;99.90
20376;DHT22;10347;51.828;6.466;2023-11-21T11:05:23;11.90;99.90
20376;DHT22;10347;51.828;6.466;2023-11-21T11:10:26;11.90;99.90
20376;DHT22;10347;51.828;6.466;2023-11-21T11:12:53;11.90;99.90
20376;DHT22;10347;51.828;6.466;2023-11-21T11:15:19;11.90;99.90
20376;DHT22;10347;51.828;6.466;2023-11-21T11:17:46;11.90;99.90
20376;DHT22;10347;51.828;6.466;2023-11-21T11:20:13;11.90;99.90
20376;DHT22;10347;51.828;6.466;2023-11-21T11:28:42;12.00;99.90
20376;DHT22;10347;51.828;6.466;2023-11-21T11:31:46;11.90;99.90
20376;DHT22;10347;51.828;6.466;2023-11-21T11:34:29;12.00;99.90
20376;DHT22;10347;51.828;6.466;2023-11-21T11:37:00;12.00;99.90
20376;DHT22;10347;51.828;6.466;2023-11-21T11:39:34;12.00;99.90
20376;DHT22;10347;51.828;6.466;2023-11-21T11:42:02;12.00;99.90
20376;DHT22;10347;51.828;6.466;2023-11-21T11:47:29;12.00;99.90
20376;DHT22;10347;51.828;6.466;2023-11-21T11:50:08;12.00;99.90
20376;DHT22;10347;51.828;6.466;2023-11-21T11:52:42;12.00;99.90
20376;DHT22;10347;51.828;6.466;2023-11-21T11:55:10;11.90;99.90
20376;DHT22;10347;51.828;6.466;2023-11-21T11:57:37;11.90;99.90
20376;DHT22;10347;51.828;6.466;2023-11-21T12:00:18;11.90;99.90
20376;DHT22;10347;51.828;6.466;2023-11-21T12:02:55;11.90;99.90
20376;DHT22;10347;51.828;6.466;2023-11-21T12:05:22;11.90;99.90
20376;DHT22;10347;51.828;6.466;2023-11-21T12:07:49;11.90;99.90
20376;DHT22;10347;51.828;6.466;2023-11-21T12:10:17;12.00;99.90
20376;DHT22;10347;51.828;6.466;2023-11-21T12:12:50;11.90;99.90
20376;DHT22;10347;51.828;6.466;2023-11-21T12:15:18;12.00;99.90
20376;DHT22;10347;51.828;6.466;2023-11-21T12:17:45;12.00;99.90
20376;DHT22;10347;51.828;6.466;2023-11-21T12:20:12;12.00;99.90
20376;DHT22;10347;51.828;6.466;2023-11-21T12:22:46;11.90;99.90
20376;DHT22;10347;51.828;6.466;2023-11-21T12:27:42;11.90;99.90
20376;DHT22;10347;51.828;6.466;2023-11-21T12:30:09;11.90;99.90
20376;DHT22;10347;51.828;6.466;2023-11-21T12:32:39;11.90;99.90
20376;DHT22;10347;51.828;6.466;2023-11-21T12:35:06;11.90;99.90
20376;DHT22;10347;51.828;6.466;2023-11-21T12:37:32;11.90;99.90
20376;DHT22;10347;51.828;6.466;2023-11-21T12:39:57;11.90;99.90
20376;DHT22;10347;51.828;6.466;2023-11-21T12:42:23;11.90;99.90
20376;DHT22;10347;51.828;6.466;2023-11-21T12:45:22;11.90;99.90
20376;DHT22;10347;51.828;6.466;2023-11-21T12:47:49;12.00;99.90
20376;DHT22;10347;51.828;6.466;2023-11-21T12:50:22;11.90;99.90
20376;DHT22;10347;51.828;6.466;2023-11-21T12:52:50;12.00;99.90
20376;DHT22;10347;51.828;6.466;2023-11-21T12:55:17;12.00;99.90
20376;DHT22;10347;51.828;6.466;2023-11-21T12:57:52;12.00;99.90
20376;DHT22;10347;51.828;6.466;2023-11-21T13:00:20;12.00;99.90
20376;DHT22;10347;51.828;6.466;2023-11-21T13:02:57;12.00;99.90
20376;DHT22;10347;51.828;6.466;2023-11-21T13:05:32;12.00;99.90
20376;DHT22;10347;51.828;6.466;2023-11-21T13:08:00;12.00;99.90
20376;DHT22;10347;51.828;6.466;2023-11-21T13:10:29;12.00;99.90
20376;DHT22;10347;51.828;6.466;2023-11-21T13:12:57;12.00;99.90
20376;DHT22;10347;51.828;6.466;2023-11-21T13:15:29;12.00;99.90
20376;DHT22;10347;51.828;6.466;2023-11-21T13:17:57;12.00;99.90
20376;DHT22;10347;51.828;6.466;2023-11-21T13:20:23;12.00;99.90
20376;DHT22;10347;51.828;6.466;2023-11-21T13:22:51;12.00;99.90
20376;DHT22;10347;51.828;6.466;2023-11-21T13:25:24;12.00;99.90
20376;DHT22;10347;51.828;6.466;2023-11-21T13:27:55;12.00;99.90
20376;DHT22;10347;51.828;6.466;2023-11-21T13:30:23;12.00;99.90
20376;DHT22;10347;51.828;6.466;2023-11-21T13:32:52;12.00;99.90
20376;DHT22;10347;51.828;6.466;2023-11-21T13:35:19;12.00;99.90
20376;DHT22;10347;51.828;6.466;2023-11-21T13:37:56;12.00;99.90
20376;DHT22;10347;51.828;6.466;2023-11-21T13:40:25;12.00;99.90
20376;DHT22;10347;51.828;6.466;2023-11-21T13:42:55;12.10;99.90
20376;DHT22;10347;51.828;6.466;2023-11-21T13:45:25;12.10;99.90
20376;DHT22;10347;51.828;6.466;2023-11-21T13:47:53;12.10;99.90
20376;DHT22;10347;51.828;6.466;2023-11-21T13:50:25;12.10;99.90
20376;DHT22;10347;51.828;6.466;2023-11-21T13:52:56;12.10;99.90
20376;DHT22;10347;51.828;6.466;2023-11-21T13:55:22;12.10;99.90
20376;DHT22;10347;51.828;6.466;2023-11-21T13:57:50;12.10;99.90
20376;DHT22;10347;51.828;6.466;2023-11-21T14:00:18;12.10;99.90
20376;DHT22;10347;51.828;6.466;2023-11-21T14:03:02;12.10;99.90
20376;DHT22;10347;51.828;6.466;2023-11-21T14:05:28;12.10;99.90
20376;DHT22;10347;51.828;6.466;2023-11-21T14:07:57;12.10;99.90
20376;DHT22;10347;51.828;6.466;2023-11-21T14:10:29;12.10;99.90
20376;DHT22;10347;51.828;6.466;2023-11-21T14:13:02;12.10;99.90
20376;DHT22;10347;51.828;6.466;2023-11-21T14:15:28;12.10;99.90
20376;DHT22;10347;51.828;6.466;2023-11-21T14:17:54;12.10;99.90
20376;DHT22;10347;51.828;6.466;2023-11-21T14:20:20;12.20;99.90
20376;DHT22;10347;51.828;6.466;2023-11-21T14:22:46;12.10;99.90
20376;DHT22;10347;51.828;6.466;2023-11-21T14:25:12;12.10;99.90
20376;DHT22;10347;51.828;6.466;2023-11-21T14:27:39;12.00;99.90
20376;DHT22;10347;51.828;6.466;2023-11-21T14:30:05;11.90;99.90
20376;DHT22;10347;51.828;6.466;2023-11-21T14:32:31;11.90;99.90
20376;DHT22;10347;51.828;6.466;2023-11-21T14:34:57;11.90;99.90
20376;DHT22;10347;51.828;6.466;2023-11-21T14:37:23;11.90;99.90
20376;DHT22;10347;51.828;6.466;2023-11-21T14:39:49;11.80;99.90
20376;DHT22;10347;51.828;6.466;2023-11-21T14:42:15;11.80;99.90
20376;DHT22;10347;51.828;6.466;2023-11-21T14:44:41;11.80;99.90
20376;DHT22;10347;51.828;6.466;2023-11-21T14:47:08;11.80;99.90
20376;DHT22;10347;51.828;6.466;2023-11-21T14:49:43;11.80;99.90
20376;DHT22;10347;51.828;6.466;2023-11-21T14:52:19;11.80;99.90
20376;DHT22;10347;51.828;6.466;2023-11-21T14:55:01;11.70;99.90
20376;DHT22;10347;51.828;6.466;2023-11-21T14:57:45;11.70;99.90
20376;DHT22;10347;51.828;6.466;2023-11-21T15:00:16;11.80;99.90
20376;DHT22;10347;51.828;6.466;2023-11-21T15:03:03;11.80;99.90
20376;DHT22;10347;51.828;6.466;2023-11-21T15:05:29;11.70;99.90
20376;DHT22;10347;51.828;6.466;2023-11-21T15:07:55;11.70;99.90
20376;DHT22;10347;51.828;6.466;2023-11-21T15:10:24;11.70;99.90
20376;DHT22;10347;51.828;6.466;2023-11-21T15:13:10;11.60;99.90
20376;DHT22;10347;51.828;6.466;2023-11-21T15:15:36;11.60;99.90
20376;DHT22;10347;51.828;6.466;2023-11-21T15:18:03;11.60;99.90
20376;DHT22;10347;51.828;6.466;2023-11-21T15:20:28;11.60;99.90
20376;DHT22;10347;51.828;6.466;2023-11-21T15:22:54;11.60;99.90
20376;DHT22;10347;51.828;6.466;2023-11-21T15:25:20;11.60;99.90
20376;DHT22;10347;51.828;6.466;2023-11-21T15:27:47;11.50;99.90
20376;DHT22;10347;51.828;6.466;2023-11-21T15:30:15;11.50;99.90
20376;DHT22;10347;51.828;6.466;2023-11-21T15:32:41;11.40;99.90
20376;DHT22;10347;51.828;6.466;2023-11-21T15:35:07;11.30;99.90
20376;DHT22;10347;51.828;6.466;2023-11-21T15:37:37;11.30;99.90
20376;DHT22;10347;51.828;6.466;2023-11-21T15:40:03;11.30;99.90
20376;DHT22;10347;51.828;6.466;2023-11-21T15:42:31;11.30;99.90
20376;DHT22;10347;51.828;6.466;2023-11-21T15:44:56;11.30;99.90
20376;DHT22;10347;51.828;6.466;2023-11-21T15:47:22;11.30;99.90